Time;durP1;ratioP1;P1;durP2;ratioP2;P2;SDS_P1;SDS_P2;PMS_P1;PMS_P2;Temp;Humidity;BMP_temperature;BMP_pressure;BME280_temperature;BME280_humidity;BME280_pressure;Samples;Min_cycle;Max_cycle;Signal;HPM_P1;HPM_P2
2022/08/27 00:02:17;;;;;;;8.83;4.45;;;;;;;21.63;41.06;99303.38;1816432;78;21092;-75
2022/08/27 00:04:44;;;;;;;9.98;4.53;;;;;;;21.62;40.95;99307.05;1786506;80;21173;-75
2022/08/27 00:07:12;;;;;;;10.08;4.75;;;;;;;21.58;41.04;99304.76;1818356;78;21669;-75
2022/08/27 00:09:39;;;;;;;9.03;4.45;;;;;;;21.55;41.00;99299.66;1789893;80;20976;-76
2022/08/27 00:12:07;;;;;;;7.08;4.67;;;;;;;21.51;40.90;99299.91;1818575;78;21076;-75
2022/08/27 00:14:34;;;;;;;8.48;4.40;;;;;;;21.50;40.94;99302.70;1789653;80;21617;-75
2022/08/27 00:17:01;;;;;;;7.30;4.78;;;;;;;21.48;41.01;99302.00;1818884;78;21905;-75
2022/08/27 00:19:29;;;;;;;9.35;4.58;;;;;;;21.47;41.07;99301.66;1789625;80;21629;-75
2022/08/27 00:21:56;;;;;;;7.60;4.78;;;;;;;21.47;41.16;99300.31;1818371;78;21037;-75
2022/08/27 00:24:22;;;;;;;10.32;4.53;;;;;;;21.45;41.25;99295.52;1789926;80;21004;-75
2022/08/27 00:26:52;;;;;;;9.03;4.85;;;;;;;21.44;41.33;99289.33;1819000;78;21148;-76
2022/08/27 00:29:19;;;;;;;8.08;4.62;;;;;;;21.41;41.70;99289.58;1789915;80;21899;-76
2022/08/27 00:31:46;;;;;;;13.38;5.10;;;;;;;21.40;41.70;99291.04;1818212;78;21108;-76
2022/08/27 00:34:13;;;;;;;9.68;5.03;;;;;;;21.38;41.78;99295.18;1790285;80;20994;-75
2022/08/27 00:36:40;;;;;;;5.87;4.45;;;;;;;21.36;41.79;99297.14;1818627;78;21010;-75
2022/08/27 00:39:07;;;;;;;12.88;5.40;;;;;;;21.36;41.77;99298.98;1790532;80;21113;-75
2022/08/27 00:41:34;;;;;;;7.75;4.58;;;;;;;21.34;41.98;99299.94;1818846;78;21517;-75
2022/08/27 00:44:01;;;;;;;9.20;5.10;;;;;;;21.32;41.92;99305.08;1790260;80;21058;-75
2022/08/27 00:46:50;;;;;;;8.45;5.70;;;;;;;21.30;41.86;99304.33;1818445;78;21053;-76
2022/08/27 00:49:27;;;;;;;10.63;4.80;;;;;;;21.31;41.89;99306.05;1786171;80;21064;-75
2022/08/27 00:52:04;;;;;;;8.40;5.25;;;;;;;21.29;42.03;99302.66;1818389;78;21058;-75
2022/08/27 00:54:31;;;;;;;10.28;4.78;;;;;;;21.27;42.03;99297.42;1817642;78;21303;-75
2022/08/27 00:56:58;;;;;;;7.25;4.87;;;;;;;21.26;42.20;99304.23;1789720;80;21018;-75
2022/08/27 00:59:28;;;;;;;9.93;5.80;;;;;;;21.25;42.30;99306.54;1815255;78;21026;-76
2022/08/27 01:04:41;;;;;;;11.57;5.87;;;;;;;21.24;42.34;99304.36;1797639;79;21047;-75
2022/08/27 01:07:08;;;;;;;16.00;5.17;;;;;;;21.22;42.46;99302.80;1797486;79;21134;-75
2022/08/27 01:09:35;;;;;;;7.83;5.78;;;;;;;21.20;42.61;99303.39;1797721;79;21046;-75
2022/08/27 01:12:03;;;;;;;7.25;5.00;;;;;;;21.18;42.69;99302.67;1797688;79;21031;-75
2022/08/27 01:14:29;;;;;;;12.25;5.08;;;;;;;21.17;42.64;99305.02;1797821;79;20980;-75
2022/08/27 01:16:57;;;;;;;8.88;5.53;;;;;;;21.15;42.93;99298.44;1798141;79;21533;-75
2022/08/27 01:19:33;;;;;;;8.00;5.15;;;;;;;21.12;42.90;99304.88;1797820;79;21201;-75
2022/08/27 01:22:32;;;;;;;14.18;5.67;;;;;;;21.10;43.07;99306.84;1798309;79;21617;-75
2022/08/27 01:25:02;;;;;;;11.40;5.30;;;;;;;21.06;43.12;99296.51;1797878;79;21023;-75
2022/08/27 01:27:30;;;;;;;10.82;5.30;;;;;;;21.03;43.15;99305.65;1797951;79;21075;-75
2022/08/27 01:29:57;;;;;;;6.47;4.58;;;;;;;21.01;43.25;99299.55;1797972;79;21074;-76
2022/08/27 01:32:27;;;;;;;8.30;5.05;;;;;;;20.98;43.21;99302.50;1797636;79;21131;-75
2022/08/27 01:34:54;;;;;;;11.53;5.50;;;;;;;20.97;43.31;99303.46;1797879;79;21094;-76
2022/08/27 01:37:21;;;;;;;9.43;5.22;;;;;;;20.96;43.48;99300.41;1797679;79;21589;-75
2022/08/27 01:39:48;;;;;;;7.25;5.00;;;;;;;20.95;43.69;99304.92;1798021;79;21066;-75
2022/08/27 01:42:23;;;;;;;15.90;5.03;;;;;;;20.93;43.81;99302.00;1810007;79;21057;-75
2022/08/27 01:44:58;;;;;;;7.50;5.22;;;;;;;20.91;43.72;99303.95;1810301;79;21181;-76
2022/08/27 01:47:25;;;;;;;7.87;5.33;;;;;;;20.88;43.67;99304.19;1778067;80;21121;-75
2022/08/27 01:49:52;;;;;;;10.50;5.65;;;;;;;20.85;43.73;99305.31;1779700;80;21114;-76
2022/08/27 01:52:22;;;;;;;7.90;5.42;;;;;;;20.83;43.64;99293.89;1781562;80;21054;-75
2022/08/27 01:54:50;;;;;;;10.15;5.12;;;;;;;20.82;43.74;99298.03;1781891;80;21094;-75
2022/08/27 01:57:18;;;;;;;9.13;5.72;;;;;;;20.79;43.79;99292.42;1781994;80;21117;-75
2022/08/27 01:59:44;;;;;;;15.18;5.72;;;;;;;20.79;43.90;99297.77;1781948;80;21318;-76
2022/08/27 02:02:12;;;;;;;12.13;5.50;;;;;;;20.77;44.08;99296.55;1779911;80;21114;-75
2022/08/27 02:04:39;;;;;;;11.60;5.42;;;;;;;20.76;43.95;99297.55;1815332;79;21046;-76
2022/08/27 02:07:05;;;;;;;6.33;5.12;;;;;;;20.74;43.97;99291.95;1815590;78;21010;-75
2022/08/27 02:09:33;;;;;;;8.23;5.37;;;;;;;20.71;43.89;99293.06;1815625;78;21037;-75
2022/08/27 02:12:00;;;;;;;12.65;5.62;;;;;;;20.71;44.15;99292.19;1815492;79;21505;-75
2022/08/27 02:14:27;;;;;;;11.65;5.20;;;;;;;20.67;44.05;99294.27;1815707;79;21030;-75
2022/08/27 02:16:54;;;;;;;11.15;5.35;;;;;;;20.67;44.10;99298.27;1815796;79;21022;-75
2022/08/27 02:19:21;;;;;;;12.60;4.78;;;;;;;20.65;44.06;99301.56;1815657;79;21112;-75
2022/08/27 02:21:48;;;;;;;15.18;5.15;;;;;;;20.63;44.02;99299.50;1815875;79;21166;-75
2022/08/27 02:24:15;;;;;;;8.43;5.33;;;;;;;20.62;44.09;99296.42;1815422;79;21038;-75
2022/08/27 02:26:42;;;;;;;10.58;5.62;;;;;;;20.60;44.24;99300.55;1815606;79;21634;-75
2022/08/27 02:29:08;;;;;;;7.87;4.60;;;;;;;20.59;44.36;99296.66;1815639;78;21026;-75
2022/08/27 02:31:35;;;;;;;12.85;5.70;;;;;;;20.56;44.36;99288.88;1815878;78;20987;-76
2022/08/27 02:34:02;;;;;;;9.23;5.28;;;;;;;20.54;44.61;99295.72;1815565;79;21249;-76
2022/08/27 02:36:29;;;;;;;14.23;5.22;;;;;;;20.53;44.55;99299.84;1815342;79;20967;-75
2022/08/27 02:38:56;;;;;;;7.67;5.60;;;;;;;20.53;44.47;99299.84;1815379;79;21046;-76
2022/08/27 02:41:23;;;;;;;9.33;5.20;;;;;;;20.52;44.70;99295.46;1815470;78;21065;-75
2022/08/27 02:43:49;;;;;;;17.17;5.50;;;;;;;20.51;44.90;99293.75;1815567;79;20998;-75
2022/08/27 02:46:16;;;;;;;9.50;4.62;;;;;;;20.50;44.77;99289.39;1815530;79;21654;-75
2022/08/27 02:48:43;;;;;;;18.37;5.40;;;;;;;20.49;45.02;99289.02;1815338;79;20963;-75
2022/08/27 02:51:10;;;;;;;19.65;5.33;;;;;;;20.48;45.20;99288.67;1815710;79;21023;-76
2022/08/27 02:53:36;;;;;;;13.38;5.15;;;;;;;20.46;45.34;99289.25;1815406;79;21022;-76
2022/08/27 02:56:05;;;;;;;16.17;6.22;;;;;;;20.45;45.36;99286.23;1815794;79;21289;-76
2022/08/27 02:58:35;;;;;;;8.58;4.30;;;;;;;20.45;45.52;99287.58;1815130;78;21576;-76
2022/08/27 03:01:02;;;;;;;13.38;4.90;;;;;;;20.44;45.84;99287.20;1815502;79;20998;-76
2022/08/27 03:03:29;;;;;;;11.50;5.45;;;;;;;20.43;46.11;99285.52;1815347;79;21014;-75
2022/08/27 03:05:57;;;;;;;9.98;4.90;;;;;;;20.43;46.03;99286.85;1809911;78;21049;-76
2022/08/27 03:08:25;;;;;;;8.60;4.95;;;;;;;20.41;46.11;99281.62;1809901;79;21058;-76
2022/08/27 03:10:53;;;;;;;6.05;4.42;;;;;;;20.41;46.33;99282.96;1809995;79;21110;-75
2022/08/27 03:13:21;;;;;;;12.55;4.97;;;;;;;20.41;46.43;99281.62;1810154;79;21448;-75
2022/08/27 03:15:48;;;;;;;10.58;4.65;;;;;;;20.41;46.62;99282.47;1810215;79;21079;-75
2022/08/27 03:18:17;;;;;;;8.55;4.95;;;;;;;20.42;46.77;99283.31;1810633;79;21049;-75
2022/08/27 03:20:47;;;;;;;9.33;4.60;;;;;;;20.43;46.84;99285.52;1809956;79;21094;-75
2022/08/27 03:23:14;;;;;;;11.05;4.72;;;;;;;20.43;46.93;99287.69;1810259;79;21056;-75
2022/08/27 03:25:50;;;;;;;8.48;4.95;;;;;;;20.43;47.07;99283.69;1810240;79;21024;-76
2022/08/27 03:28:25;;;;;;;8.15;4.80;;;;;;;20.43;47.11;99280.17;1809669;79;21608;-75
2022/08/27 03:30:57;;;;;;;10.60;4.65;;;;;;;20.43;47.24;99280.17;1810249;79;20944;-75
2022/08/27 03:33:25;;;;;;;11.57;5.10;;;;;;;20.43;47.36;99274.83;1809800;79;21023;-76
2022/08/27 03:35:52;;;;;;;9.03;4.83;;;;;;;20.42;47.41;99277.96;1810008;79;21134;-75
2022/08/27 03:38:19;;;;;;;10.30;5.70;;;;;;;20.43;47.53;99278.34;1809828;79;21038;-75
2022/08/27 03:40:45;;;;;;;8.83;4.92;;;;;;;20.43;47.58;99278.84;1810168;79;21058;-75
2022/08/27 03:43:13;;;;;;;9.30;4.45;;;;;;;20.43;47.68;99281.02;1810225;79;21542;-75
2022/08/27 03:45:44;;;;;;;9.05;4.72;;;;;;;20.44;47.59;99284.53;1809931;79;21027;-75
2022/08/27 03:48:12;;;;;;;12.28;5.08;;;;;;;20.45;47.71;99279.55;1810023;79;21220;-76
2022/08/27 03:50:40;;;;;;;13.45;4.80;;;;;;;20.45;47.92;99276.39;1809937;78;21093;-75
2022/08/27 03:53:07;;;;;;;13.62;4.67;;;;;;;20.44;47.78;99273.34;1815151;79;21182;-75
2022/08/27 03:55:33;;;;;;;12.07;4.42;;;;;;;20.46;48.12;99269.21;1815164;78;21024;-76
2022/08/27 03:58:00;;;;;;;12.07;4.80;;;;;;;20.46;48.26;99265.20;1815152;79;21044;-76
2022/08/27 04:00:26;;;;;;;9.75;4.35;;;;;;;20.46;48.38;99267.88;1815433;78;21111;-75
2022/08/27 04:02:53;;;;;;;10.88;4.65;;;;;;;20.47;48.42;99265.08;1814119;78;21103;-75
2022/08/27 04:05:20;;;;;;;11.50;4.62;;;;;;;20.49;48.44;99260.95;1804166;79;21986;-75
2022/08/27 04:07:48;;;;;;;15.40;4.72;;;;;;;20.49;48.55;99267.14;1803952;79;21623;-75
2022/08/27 04:10:15;;;;;;;7.33;4.17;;;;;;;20.50;48.52;99269.34;1804114;79;21563;-76
2022/08/27 04:12:42;;;;;;;10.10;4.58;;;;;;;20.51;48.70;99266.56;1803801;79;21134;-76
2022/08/27 04:15:10;;;;;;;9.95;4.60;;;;;;;20.53;48.69;99261.09;1803984;79;21068;-75
2022/08/27 04:17:38;;;;;;;9.70;4.47;;;;;;;20.55;48.77;99262.65;1804073;78;21041;-75
2022/08/27 04:20:06;;;;;;;20.52;4.75;;;;;;;20.58;48.78;99267.75;1804002;78;21091;-76
2022/08/27 04:22:33;;;;;;;11.43;4.28;;;;;;;20.58;48.87;99266.42;1804124;79;20922;-76
2022/08/27 04:25:00;;;;;;;9.55;4.35;;;;;;;20.61;48.73;99265.34;1803862;79;21093;-75
2022/08/27 04:27:27;;;;;;;10.78;4.60;;;;;;;20.63;49.03;99266.09;1803826;79;21014;-75
2022/08/27 04:29:55;;;;;;;12.63;5.25;;;;;;;20.67;49.01;99261.34;1803861;78;21028;-76
2022/08/27 04:32:22;;;;;;;14.68;4.65;;;;;;;20.69;49.00;99257.55;1803951;79;21062;-75
2022/08/27 04:34:48;;;;;;;16.77;4.42;;;;;;;20.72;48.96;99260.48;1803979;78;21045;-76
2022/08/27 04:37:15;;;;;;;10.88;4.47;;;;;;;20.74;48.87;99249.17;1804085;79;21155;-75
2022/08/27 04:39:42;;;;;;;13.98;4.65;;;;;;;20.76;48.99;99245.41;1803663;79;21049;-75
2022/08/27 04:42:09;;;;;;;10.75;4.30;;;;;;;20.78;48.79;99251.97;1804205;78;21099;-76
2022/08/27 04:44:36;;;;;;;8.90;4.20;;;;;;;20.82;48.76;99251.23;1803876;79;21028;-76
2022/08/27 04:47:04;;;;;;;11.73;4.42;;;;;;;20.85;48.85;99250.98;1803893;79;21056;-76
2022/08/27 04:49:31;;;;;;;12.75;4.50;;;;;;;20.86;48.56;99253.51;1803986;79;21521;-75
2022/08/27 04:51:58;;;;;;;10.85;4.83;;;;;;;20.89;48.54;99251.08;1804039;79;21044;-76
2022/08/27 04:54:25;;;;;;;10.03;4.60;;;;;;;20.92;48.87;99250.84;1804000;79;21122;-75
2022/08/27 04:56:52;;;;;;;10.58;4.58;;;;;;;20.95;48.96;99249.26;1804235;79;21127;-75
2022/08/27 04:59:18;;;;;;;9.00;4.30;;;;;;;20.96;48.75;99247.80;1803955;79;21060;-76
2022/08/27 05:01:45;;;;;;;10.03;4.20;;;;;;;20.99;48.59;99245.84;1803893;79;21671;-76
2022/08/27 05:04:13;;;;;;;6.97;4.00;;;;;;;21.02;48.83;99241.58;1792778;78;21133;-76
2022/08/27 05:06:43;;;;;;;15.30;4.58;;;;;;;21.04;48.90;99240.45;1759209;81;21045;-76
2022/08/27 05:09:09;;;;;;;8.85;4.15;;;;;;;21.06;49.00;99238.50;1759386;81;21132;-75
2022/08/27 05:11:36;;;;;;;10.03;4.58;;;;;;;21.06;49.20;99234.48;1759162;81;21100;-75
2022/08/27 05:14:06;;;;;;;14.03;4.62;;;;;;;21.07;49.53;99232.19;1759427;81;21128;-76
2022/08/27 05:16:35;;;;;;;9.20;4.22;;;;;;;21.09;49.87;99243.60;1753184;81;20931;-75
2022/08/27 05:19:02;;;;;;;14.15;4.85;;;;;;;21.13;49.95;99255.77;1753298;81;21064;-75
2022/08/27 05:21:32;;;;;;;11.70;4.78;;;;;;;21.18;49.85;99253.18;1753088;80;21072;-75
2022/08/27 05:24:00;;;;;;;8.13;4.40;;;;;;;21.21;50.00;99251.09;1766474;81;21065;-75
2022/08/27 05:26:27;;;;;;;11.93;4.37;;;;;;;21.24;49.86;99254.86;1766698;80;21063;-76
2022/08/27 05:28:54;;;;;;;13.40;4.75;;;;;;;21.28;49.64;99253.64;1766228;80;21529;-75
2022/08/27 05:31:21;;;;;;;8.33;4.47;;;;;;;21.31;49.44;99257.88;1766797;81;22293;-75
2022/08/27 05:33:47;;;;;;;12.23;4.15;;;;;;;21.35;49.47;99258.00;1766534;81;21140;-75
2022/08/27 05:36:20;;;;;;;11.05;4.33;;;;;;;21.38;49.25;99251.02;1766819;81;21053;-75
2022/08/27 05:38:48;;;;;;;10.23;4.05;;;;;;;21.42;49.27;99258.33;1766209;81;21902;-76
2022/08/27 05:41:17;;;;;;;11.78;3.55;;;;;;;21.46;49.13;99246.37;1766018;81;21041;-75
2022/08/27 05:43:44;;;;;;;11.18;4.42;;;;;;;21.49;49.52;99253.69;1766361;81;21092;-76
2022/08/27 05:46:13;;;;;;;12.15;3.83;;;;;;;21.54;49.60;99249.79;1766242;81;21068;-74
2022/08/27 05:48:40;;;;;;;9.68;4.20;;;;;;;21.56;49.53;99244.65;1766542;81;21592;-76
2022/08/27 05:51:18;;;;;;;8.83;3.85;;;;;;;21.60;49.48;99247.44;1766438;81;21866;-75
2022/08/27 05:53:44;;;;;;;14.28;4.40;;;;;;;21.62;49.62;99247.28;1766561;80;21021;-75
2022/08/27 05:56:17;;;;;;;15.60;4.45;;;;;;;21.66;49.53;99249.58;1766336;81;21473;-75
2022/08/27 06:01:31;;;;;;;5.72;3.47;;;;;;;21.74;49.39;99247.59;1752760;81;21030;-76
2022/08/27 06:03:58;;;;;;;11.83;4.20;;;;;;;21.78;49.47;99246.34;1746967;81;21542;-76
2022/08/27 06:06:24;;;;;;;6.72;3.83;;;;;;;21.80;49.24;99245.72;1732782;82;21130;-75
2022/08/27 06:08:53;;;;;;;7.53;3.65;;;;;;;21.84;49.06;99242.31;1732603;82;21140;-76
2022/08/27 06:11:20;;;;;;;14.45;4.37;;;;;;;21.85;49.06;99243.48;1732878;82;21040;-76
2022/08/27 06:13:47;;;;;;;5.75;3.70;;;;;;;21.87;48.86;99243.36;1732677;82;21040;-75
2022/08/27 06:16:16;;;;;;;9.95;3.52;;;;;;;21.87;48.70;99233.98;1732945;82;21216;-76
2022/08/27 06:18:45;;;;;;;10.60;4.30;;;;;;;21.89;48.70;99250.30;1732980;82;21135;-75
2022/08/27 06:21:12;;;;;;;10.90;3.98;;;;;;;21.89;48.95;99241.42;1732787;82;21130;-75
2022/08/27 06:23:39;;;;;;;17.05;3.85;;;;;;;21.89;48.63;99246.78;1733035;82;21025;-76
2022/08/27 06:26:10;;;;;;;9.93;3.75;;;;;;;21.86;48.61;99245.20;1732765;82;21059;-76
2022/08/27 06:28:40;;;;;;;13.83;4.80;;;;;;;21.85;48.54;99250.18;1732879;82;21314;-76
2022/08/27 06:31:22;;;;;;;11.88;3.65;;;;;;;21.84;48.42;99249.84;1732804;82;21073;-75
2022/08/27 06:33:50;;;;;;;7.62;3.67;;;;;;;21.82;48.36;99248.27;1731376;82;21409;-76
2022/08/27 06:36:20;;;;;;;12.75;3.85;;;;;;;21.81;48.36;99244.75;1732848;82;21021;-75
2022/08/27 06:38:48;;;;;;;10.43;3.40;;;;;;;21.82;48.30;99237.55;1731977;82;21052;-76
2022/08/27 06:41:19;;;;;;;11.88;3.58;;;;;;;21.81;48.44;99252.78;1732625;82;21097;-75
2022/08/27 06:43:46;;;;;;;14.98;3.80;;;;;;;21.81;48.45;99246.09;1732639;82;21004;-76
2022/08/27 06:46:17;;;;;;;13.98;3.67;;;;;;;21.82;48.22;99242.44;1733059;82;21072;-75
2022/08/27 06:48:44;;;;;;;13.80;3.77;;;;;;;21.82;47.80;99243.78;1732731;82;21523;-75
2022/08/27 06:51:15;;;;;;;8.00;3.12;;;;;;;21.83;47.63;99246.80;1732908;82;21471;-76
2022/08/27 06:53:43;;;;;;;15.43;3.20;;;;;;;21.85;47.70;99250.18;1732627;82;21860;-75
2022/08/27 06:56:11;;;;;;;13.28;3.50;;;;;;;21.87;47.85;99244.23;1732441;82;21091;-76
2022/08/27 06:58:37;;;;;;;12.30;4.00;;;;;;;21.89;47.92;99243.59;1732643;82;21126;-76
2022/08/27 07:01:22;;;;;;;23.65;4.28;;;;;;;21.94;47.96;99241.88;1732878;82;21500;-75
2022/08/27 07:03:49;;;;;;;15.70;3.60;;;;;;;21.99;47.84;99238.77;1733445;82;21078;-76
2022/08/27 07:06:16;;;;;;;9.93;3.50;;;;;;;22.03;48.06;99249.09;1743417;81;21150;-75
2022/08/27 07:08:45;;;;;;;11.43;3.45;;;;;;;22.08;48.12;99243.34;1754185;81;21446;-73
2022/08/27 07:11:12;;;;;;;21.30;4.35;;;;;;;22.13;47.91;99239.77;1745019;81;21467;-73
2022/08/27 07:13:40;;;;;;;10.72;4.03;;;;;;;22.19;47.95;99237.91;1778284;80;21560;-74
2022/08/27 07:16:11;;;;;;;9.98;3.20;;;;;;;22.25;48.04;99241.87;1779831;80;21023;-72
2022/08/27 07:18:38;;;;;;;7.75;3.37;;;;;;;22.30;47.93;99224.09;1813801;79;21221;-72
2022/08/27 07:21:05;;;;;;;12.35;3.77;;;;;;;22.34;48.00;99223.69;1815425;79;20943;-72
2022/08/27 07:23:32;;;;;;;14.13;3.80;;;;;;;22.39;47.93;99223.25;1813610;77;20986;-71
2022/08/27 07:25:59;;;;;;;11.88;3.70;;;;;;;22.45;48.44;99226.74;1815028;77;21049;-72
2022/08/27 07:28:26;;;;;;;17.23;3.95;;;;;;;22.48;48.39;99213.55;1815154;79;21018;-73
2022/08/27 07:30:52;;;;;;;15.08;3.58;;;;;;;22.52;48.96;99216.33;1814978;78;21212;-72
2022/08/27 07:33:19;;;;;;;11.95;4.00;;;;;;;22.54;48.39;99217.86;1815051;77;20991;-73
2022/08/27 07:35:47;;;;;;;17.95;4.05;;;;;;;22.59;48.36;99214.31;1815370;79;20986;-73
2022/08/27 07:38:14;;;;;;;21.50;4.17;;;;;;;22.63;48.51;99216.22;1815110;77;21046;-72
2022/08/27 07:40:41;;;;;;;11.68;4.08;;;;;;;22.67;48.45;99214.11;1815058;79;21528;-72
2022/08/27 07:45:55;;;;;;;44.70;5.97;;;;;;;22.80;47.97;99218.22;1814571;79;21014;-73
2022/08/27 07:48:22;;;;;;;42.27;7.33;;;;;;;22.88;47.83;99209.48;1813104;78;21059;-73
2022/08/27 07:50:50;;;;;;;66.45;11.10;;;;;;;22.96;46.94;99212.33;1813693;78;21017;-73
2022/08/27 07:53:17;;;;;;;142.07;16.30;;;;;;;23.04;46.58;99208.92;1789319;77;21023;-73
2022/08/27 07:55:44;;;;;;;109.37;13.65;;;;;;;23.15;45.77;99218.72;1777302;80;21178;-72
2022/08/27 07:58:12;;;;;;;28.55;6.78;;;;;;;23.25;45.67;99213.33;1777394;79;21050;-72
2022/08/27 08:00:42;;;;;;;330.85;62.90;;;;;;;23.35;45.11;99220.41;1801194;79;20991;-73
2022/08/27 08:03:10;;;;;;;343.00;38.10;;;;;;;23.51;45.16;99220.31;1813655;77;21361;-73
2022/08/27 08:05:43;;;;;;;15.98;4.33;;;;;;;23.66;44.96;99220.22;1817160;78;21097;-72
2022/08/27 08:08:10;;;;;;;11.05;4.47;;;;;;;23.84;44.36;99215.45;1819425;78;21135;-73
2022/08/27 08:10:38;;;;;;;103.85;10.63;;;;;;;23.99;44.35;99210.47;1818941;78;21478;-73
2022/08/27 08:13:05;;;;;;;30.25;5.60;;;;;;;24.13;43.92;99207.83;1820700;77;21481;-73
2022/08/27 08:15:33;;;;;;;25.57;4.85;;;;;;;24.24;43.20;99208.95;1820775;78;21046;-73
2022/08/27 08:17:59;;;;;;;24.98;5.03;;;;;;;24.35;42.99;99203.91;1819399;78;21066;-72
2022/08/27 08:20:26;;;;;;;33.28;6.67;;;;;;;24.44;42.88;99201.17;1818816;78;21216;-73
2022/08/27 08:22:52;;;;;;;25.05;5.40;;;;;;;24.51;42.76;99191.13;1820337;77;21049;-72
2022/08/27 08:25:19;;;;;;;15.85;4.28;;;;;;;24.58;41.69;99198.97;1820425;77;21062;-73
2022/08/27 08:27:46;;;;;;;10.43;3.90;;;;;;;24.60;41.48;99194.31;1819344;78;22007;-73
2022/08/27 08:30:13;;;;;;;10.43;4.20;;;;;;;24.61;41.12;99191.95;1818898;78;22204;-73
2022/08/27 08:32:42;;;;;;;11.30;3.70;;;;;;;24.64;40.65;99197.03;1796173;77;21042;-72
2022/08/27 08:35:11;;;;;;;9.10;3.90;;;;;;;24.64;40.58;99193.00;1757247;81;21079;-73
2022/08/27 08:37:38;;;;;;;10.75;4.00;;;;;;;24.64;40.62;99190.31;1758269;81;21499;-72
2022/08/27 08:40:07;;;;;;;9.83;3.50;;;;;;;24.64;40.53;99190.31;1762648;80;21078;-72
2022/08/27 08:42:44;;;;;;;15.80;4.35;;;;;;;24.66;40.58;99188.30;1790854;79;21000;-72
2022/08/27 08:45:13;;;;;;;8.90;3.50;;;;;;;24.71;40.26;99193.23;1756762;80;21203;-72
2022/08/27 08:48:07;;;;;;;12.33;4.33;;;;;;;24.71;39.81;99183.31;1756158;81;21471;-71
2022/08/27 08:50:40;;;;;;;16.35;4.33;;;;;;;24.73;40.39;99184.03;1820215;77;21054;-73
2022/08/27 08:53:42;;;;;;;9.40;3.95;;;;;;;24.77;40.39;99181.88;1788719;80;21047;-73
2022/08/27 08:56:11;;;;;;;9.78;4.20;;;;;;;24.80;40.60;99186.45;1756330;81;21142;-72
2022/08/27 08:58:58;;;;;;;6.55;3.92;;;;;;;24.87;40.73;99184.51;1759337;81;21895;-72
2022/08/27 09:01:25;;;;;;;8.35;3.90;;;;;;;24.91;40.51;99179.98;1779100;79;21333;-73
2022/08/27 09:03:56;;;;;;;17.37;4.50;;;;;;;24.98;40.48;99180.22;1752092;80;21460;-73
2022/08/27 09:06:48;;;;;;;12.37;4.35;;;;;;;25.05;40.39;99185.36;1776959;80;21603;-72
2022/08/27 09:09:47;;;;;;;46.23;9.68;;;;;;;25.15;40.63;99188.81;1774289;80;21040;-72
2022/08/27 09:12:28;;;;;;;26.40;5.40;;;;;;;25.36;41.09;99184.45;1773977;80;21177;-72
2022/08/27 09:15:17;;;;;;;21.95;5.00;;;;;;;25.67;40.17;99180.46;1774465;80;21111;-73
2022/08/27 09:17:46;;;;;;;135.28;8.10;;;;;;;25.97;39.92;99183.71;1726830;80;21503;-73
2022/08/27 09:20:16;;;;;;;8.43;4.05;;;;;;;26.23;39.87;99166.98;1774421;80;21548;-73
2022/08/27 09:23:10;;;;;;;8.85;4.15;;;;;;;26.42;39.17;99175.82;1734461;80;21132;-75
2022/08/27 09:26:37;;;;;;;15.98;4.08;;;;;;;26.53;39.12;99178.23;1719151;79;21196;-73
2022/08/27 09:29:19;;;;;;;21.85;4.58;;;;;;;26.64;38.63;99173.05;1626872;87;21094;-73
2022/08/27 09:31:55;;;;;;;12.35;4.40;;;;;;;26.83;37.57;99171.89;1632303;87;21106;-74
2022/08/27 09:34:23;;;;;;;20.30;4.92;;;;;;;27.02;37.08;99175.64;1634742;87;21091;-74
2022/08/27 09:37:10;;;;;;;18.90;3.98;;;;;;;27.26;36.81;99165.86;1622664;87;21023;-74
2022/08/27 09:39:52;;;;;;;20.23;3.98;;;;;;;27.53;36.32;99178.19;1629716;87;21256;-74
2022/08/27 09:42:45;;;;;;;12.03;3.70;;;;;;;27.86;35.52;99170.55;1604253;88;21014;-74
2022/08/27 09:45:18;;;;;;;14.78;3.90;;;;;;;28.16;35.57;99169.80;1635013;87;21643;-75
2022/08/27 09:47:50;;;;;;;19.42;4.25;;;;;;;28.47;34.45;99163.55;1626990;87;21087;-74
2022/08/27 09:50:19;;;;;;;29.80;4.97;;;;;;;28.71;34.11;99168.52;1604563;89;21564;-74
2022/08/27 09:52:54;;;;;;;26.87;4.05;;;;;;;28.96;32.50;99160.24;1593959;89;21167;-74
2022/08/27 09:55:36;;;;;;;;;;;;;;;29.19;32.54;99162.98;1605443;89;21129;-74
2022/08/27 09:58:04;;;;;;;28.70;4.50;;;;;;;29.41;32.06;99161.26;1603953;89;20408;-74
2022/08/27 10:00:38;;;;;;;34.00;4.00;;;;;;;29.58;32.00;99161.42;1594477;89;21080;-74
2022/08/27 10:03:06;;;;;;;22.17;4.33;;;;;;;29.73;31.37;99161.96;1601675;89;21554;-73
2022/08/27 10:05:40;;;;;;;19.55;4.97;;;;;;;29.87;31.06;99162.50;1612925;88;21896;-74
2022/08/27 10:08:19;;;;;;;21.90;4.40;;;;;;;30.00;30.29;99157.78;1634551;87;21105;-75
2022/08/27 10:10:58;;;;;;;25.92;4.25;;;;;;;30.13;29.75;99157.14;1632666;87;21521;-74
2022/08/27 10:13:57;;;;;;;28.85;4.70;;;;;;;30.27;29.59;99152.19;1606504;87;21038;-75
2022/08/27 10:16:41;;;;;;;23.52;4.15;;;;;;;30.44;29.36;99156.08;1608796;88;21052;-75
2022/08/27 10:19:26;;;;;;;;;;;;;;;30.56;28.12;99151.83;1619351;87;21289;-74
2022/08/27 10:22:01;;;;;;;29.98;4.53;;;;;;;30.67;27.85;99158.65;1635743;87;20211;-74
2022/08/27 10:24:52;;;;;;;25.80;4.40;;;;;;;30.78;27.91;99166.80;1610833;88;21070;-73
2022/08/27 10:27:52;;;;;;;22.00;4.17;;;;;;;30.90;27.64;99163.88;1638545;86;21158;-72
2022/08/27 10:30:24;;;;;;;27.30;4.30;;;;;;;30.99;26.80;99162.77;1644655;85;21588;-72
2022/08/27 10:33:05;;;;;;;15.68;3.20;;;;;;;31.03;27.00;99166.77;1630059;86;21209;-72
2022/08/27 10:35:43;;;;;;;22.30;3.60;;;;;;;31.02;27.55;99159.67;1614763;87;21601;-72
2022/08/27 10:38:15;;;;;;;24.23;4.40;;;;;;;31.02;27.33;99163.74;1616958;87;21115;-73
2022/08/27 10:40:53;;;;;;;26.52;4.35;;;;;;;31.08;26.66;99156.15;1613788;87;21171;-73
2022/08/27 10:43:37;;;;;;;22.00;4.42;;;;;;;31.16;26.31;99161.98;1618467;87;21032;-73
2022/08/27 10:46:30;;;;;;;23.05;4.00;;;;;;;31.23;26.43;99162.05;1618386;87;23917;-73
2022/08/27 10:49:19;;;;;;;21.93;3.95;;;;;;;31.28;26.33;99161.77;1615606;87;21087;-74
2022/08/27 10:52:38;;;;;;;26.40;4.17;;;;;;;31.30;26.45;99164.29;1606434;88;21147;-74
2022/08/27 10:55:28;;;;;;;25.68;4.42;;;;;;;31.30;26.20;99178.74;1614853;88;21043;-74
2022/08/27 10:58:27;;;;;;;15.78;4.30;;;;;;;31.21;27.00;99179.06;1619333;86;22061;-72
2022/08/27 11:01:40;;;;;;;22.80;4.42;;;;;;;31.05;26.49;99176.08;1669733;85;21845;-74
2022/08/27 11:04:14;;;;;;;22.58;3.87;;;;;;;30.91;27.13;99176.44;1642078;85;21149;-75
2022/08/27 11:06:45;;;;;;;23.55;4.35;;;;;;;30.87;27.33;99175.16;1652534;85;21074;-75
2022/08/27 11:09:20;;;;;;;26.95;4.42;;;;;;;30.81;27.32;99174.56;1657773;85;21624;-78
2022/08/27 11:11:56;;;;;;;28.98;4.25;;;;;;;30.77;27.58;99176.00;1663141;85;21038;-80
2022/08/27 11:14:39;;;;;;;25.95;3.58;;;;;;;30.74;27.87;99173.97;1649348;85;21243;-85
2022/08/27 11:17:11;;;;;;;18.85;3.37;;;;;;;30.72;27.59;99177.39;1652062;85;21038;-80
2022/08/27 11:19:55;;;;;;;26.75;4.90;;;;;;;30.70;27.32;99173.20;1660787;84;21058;-79
2022/08/27 11:22:33;;;;;;;18.50;3.83;;;;;;;30.66;28.09;99167.29;1668217;84;21128;-80
2022/08/27 11:25:23;;;;;;;15.80;3.95;;;;;;;30.68;28.33;99167.97;1663411;84;21021;-79
2022/08/27 11:27:52;;;;;;;25.25;3.42;;;;;;;30.70;27.81;99165.06;1668226;85;21233;-80
2022/08/27 11:30:42;;;;;;;12.10;2.80;;;;;;;30.72;27.74;99166.53;1634136;86;21058;-80
2022/08/27 11:33:43;;;;;;;23.73;2.87;;;;;;;30.76;27.08;99162.91;1630925;86;21201;-80
2022/08/27 11:36:31;;;;;;;22.45;3.05;;;;;;;30.77;26.28;99159.70;1604693;89;21595;-80
2022/08/27 11:39:18;;;;;;;24.12;3.92;;;;;;;30.77;26.22;99162.42;1624527;88;21609;-80
2022/08/27 11:41:59;;;;;;;16.55;3.80;;;;;;;30.75;26.11;99149.86;1605497;88;21258;-80
2022/08/27 11:44:26;;;;;;;18.07;3.40;;;;;;;30.79;25.80;99148.13;1606327;88;21104;-80
2022/08/27 11:46:59;;;;;;;22.25;3.83;;;;;;;30.80;26.10;99155.21;1605123;88;21144;-81
2022/08/27 11:49:30;;;;;;;16.50;3.27;;;;;;;30.81;26.56;99152.30;1604663;88;21618;-81
2022/08/27 11:52:06;;;;;;;9.70;3.10;;;;;;;30.85;25.76;99152.27;1607067;88;21591;-80
2022/08/27 11:54:49;;;;;;;21.70;3.08;;;;;;;30.87;25.60;99147.47;1624768;87;21207;-80
2022/08/27 11:57:29;;;;;;;15.93;3.50;;;;;;;30.93;25.79;99149.42;1623969;88;21106;-80